sensor_id;sensor_type;location;lat;lon;timestamp;pressure;altitude;pressure_sealevel;temperature;humidity
50384;BME280;36301;48.310;12.786;2022-08-25T00:02:10;96449.06;;;15.93;100.00
50384;BME280;36301;48.310;12.786;2022-08-25T00:04:37;96452.13;;;15.88;100.00
50384;BME280;36301;48.310;12.786;2022-08-25T00:07:05;96446.78;;;15.81;100.00
50384;BME280;36301;48.310;12.786;2022-08-25T00:09:33;96445.69;;;15.75;100.00
50384;BME280;36301;48.310;12.786;2022-08-25T00:12:01;96447.22;;;15.72;100.00
50384;BME280;36301;48.310;12.786;2022-08-25T00:14:32;96448.00;;;15.73;100.00
50384;BME280;36301;48.310;12.786;2022-08-25T00:16:59;96446.44;;;15.75;100.00
50384;BME280;36301;48.310;12.786;2022-08-25T00:19:31;96439.22;;;15.69;100.00
50384;BME280;36301;48.310;12.786;2022-08-25T00:21:59;96436.56;;;15.65;100.00
50384;BME280;36301;48.310;12.786;2022-08-25T00:24:27;96430.84;;;15.56;100.00
50384;BME280;36301;48.310;12.786;2022-08-25T00:26:55;96426.28;;;15.56;100.00
50384;BME280;36301;48.310;12.786;2022-08-25T00:29:23;96432.38;;;15.53;100.00
50384;BME280;36301;48.310;12.786;2022-08-25T00:31:54;96432.38;;;15.53;100.00
50384;BME280;36301;48.310;12.786;2022-08-25T00:34:25;96429.31;;;15.58;100.00
50384;BME280;36301;48.310;12.786;2022-08-25T00:36:52;96427.03;;;15.64;100.00
50384;BME280;36301;48.310;12.786;2022-08-25T00:39:21;96422.44;;;15.68;100.00
50384;BME280;36301;48.310;12.786;2022-08-25T00:41:49;96422.84;;;15.67;100.00
50384;BME280;36301;48.310;12.786;2022-08-25T00:44:17;96420.91;;;15.60;100.00
50384;BME280;36301;48.310;12.786;2022-08-25T00:46:52;96419.78;;;15.57;100.00
50384;BME280;36301;48.310;12.786;2022-08-25T00:49:47;96417.53;;;15.52;100.00
50384;BME280;36301;48.310;12.786;2022-08-25T00:52:22;96420.94;;;15.49;100.00
50384;BME280;36301;48.310;12.786;2022-08-25T00:54:52;96421.31;;;15.58;100.00
50384;BME280;36301;48.310;12.786;2022-08-25T00:57:24;96426.28;;;15.64;100.00
50384;BME280;36301;48.310;12.786;2022-08-25T01:00:05;96420.94;;;15.56;100.00
50384;BME280;36301;48.310;12.786;2022-08-25T01:02:37;96417.88;;;15.54;100.00
50384;BME280;36301;48.310;12.786;2022-08-25T01:05:04;96423.63;;;15.56;100.00
50384;BME280;36301;48.310;12.786;2022-08-25T01:07:31;96417.13;;;15.57;100.00
50384;BME280;36301;48.310;12.786;2022-08-25T01:09:58;96421.31;;;15.58;100.00
50384;BME280;36301;48.310;12.786;2022-08-25T01:12:26;96419.41;;;15.55;100.00
50384;BME280;36301;48.310;12.786;2022-08-25T01:14:53;96417.50;;;15.56;100.00
50384;BME280;36301;48.310;12.786;2022-08-25T01:17:21;96400.41;;;15.43;100.00
50384;BME280;36301;48.310;12.786;2022-08-25T01:19:48;96414.09;;;15.52;100.00
50384;BME280;36301;48.310;12.786;2022-08-25T01:22:14;96422.84;;;15.56;100.00
50384;BME280;36301;48.310;12.786;2022-08-25T01:24:51;96419.44;;;15.48;100.00
50384;BME280;36301;48.310;12.786;2022-08-25T01:27:22;96421.75;;;15.43;100.00
50384;BME280;36301;48.310;12.786;2022-08-25T01:29:48;96424.41;;;15.39;100.00
50384;BME280;36301;48.310;12.786;2022-08-25T01:32:15;96424.03;;;15.37;100.00
50384;BME280;36301;48.310;12.786;2022-08-25T01:34:43;96421.75;;;15.43;100.00
50384;BME280;36301;48.310;12.786;2022-08-25T01:37:12;96427.47;;;15.34;100.00
50384;BME280;36301;48.310;12.786;2022-08-25T01:39:40;96420.25;;;15.27;100.00
50384;BME280;36301;48.310;12.786;2022-08-25T01:45:35;96412.66;;;15.19;100.00
50384;BME280;36301;48.310;12.786;2022-08-25T01:48:02;96406.56;;;15.11;100.00
50384;BME280;36301;48.310;12.786;2022-08-25T01:50:30;96409.22;;;15.15;100.00
50384;BME280;36301;48.310;12.786;2022-08-25T01:53:30;96404.66;;;15.12;100.00
50384;BME280;36301;48.310;12.786;2022-08-25T01:55:59;96404.69;;;15.01;100.00
50384;BME280;36301;48.310;12.786;2022-08-25T01:58:37;96411.91;;;15.08;100.00
50384;BME280;36301;48.310;12.786;2022-08-25T02:01:08;96404.28;;;15.02;100.00
50384;BME280;36301;48.310;12.786;2022-08-25T02:03:41;96409.63;;;15.02;100.00
50384;BME280;36301;48.310;12.786;2022-08-25T02:06:11;96407.72;;;14.99;100.00
50384;BME280;36301;48.310;12.786;2022-08-25T02:08:39;96406.97;;;14.95;100.00
50384;BME280;36301;48.310;12.786;2022-08-25T02:11:09;96416.84;;;14.95;100.00
50384;BME280;36301;48.310;12.786;2022-08-25T02:13:38;96406.59;;;14.93;100.00
50384;BME280;36301;48.310;12.786;2022-08-25T02:16:08;96402.41;;;14.89;100.00
50384;BME280;36301;48.310;12.786;2022-08-25T02:18:35;96411.94;;;14.86;100.00
50384;BME280;36301;48.310;12.786;2022-08-25T02:21:01;96410.41;;;14.85;100.00
50384;BME280;36301;48.310;12.786;2022-08-25T02:23:28;96408.88;;;14.88;100.00
50384;BME280;36301;48.310;12.786;2022-08-25T02:25:55;96401.25;;;14.83;100.00
50384;BME280;36301;48.310;12.786;2022-08-25T02:28:23;96408.13;;;14.84;100.00
50384;BME280;36301;48.310;12.786;2022-08-25T02:30:49;96414.22;;;14.81;100.00
50384;BME280;36301;48.310;12.786;2022-08-25T02:33:26;96396.31;;;14.74;100.00
50384;BME280;36301;48.310;12.786;2022-08-25T02:35:56;96404.31;;;14.77;100.00
50384;BME280;36301;48.310;12.786;2022-08-25T02:38:23;96406.97;;;14.74;100.00
50384;BME280;36301;48.310;12.786;2022-08-25T02:40:50;96401.63;;;14.74;100.00
50384;BME280;36301;48.310;12.786;2022-08-25T02:43:17;96392.16;;;14.66;100.00
50384;BME280;36301;48.310;12.786;2022-08-25T02:45:43;96399.75;;;14.67;100.00
50384;BME280;36301;48.310;12.786;2022-08-25T02:48:10;96395.16;;;14.64;100.00
50384;BME280;36301;48.310;12.786;2022-08-25T02:50:36;96395.94;;;14.61;100.00
50384;BME280;36301;48.310;12.786;2022-08-25T02:53:03;96402.41;;;14.67;100.00
50384;BME280;36301;48.310;12.786;2022-08-25T02:55:30;96397.09;;;14.71;100.00
50384;BME280;36301;48.310;12.786;2022-08-25T02:57:59;96394.78;;;14.69;100.00
50384;BME280;36301;48.310;12.786;2022-08-25T03:00:26;96384.91;;;14.63;100.00
50384;BME280;36301;48.310;12.786;2022-08-25T03:02:52;96393.66;;;14.63;100.00
50384;BME280;36301;48.310;12.786;2022-08-25T03:05:19;96386.03;;;14.62;100.00
50384;BME280;36301;48.310;12.786;2022-08-25T03:07:45;96377.66;;;14.60;100.00
50384;BME280;36301;48.310;12.786;2022-08-25T03:10:15;96381.84;;;14.64;100.00
50384;BME280;36301;48.310;12.786;2022-08-25T03:12:42;96378.81;;;14.59;100.00
50384;BME280;36301;48.310;12.786;2022-08-25T03:15:09;96387.19;;;14.61;100.00
50384;BME280;36301;48.310;12.786;2022-08-25T03:17:38;96379.94;;;14.54;100.00
50384;BME280;36301;48.310;12.786;2022-08-25T03:20:06;96375.75;;;14.49;100.00
50384;BME280;36301;48.310;12.786;2022-08-25T03:22:33;96371.56;;;14.48;100.00
50384;BME280;36301;48.310;12.786;2022-08-25T03:25:00;96377.66;;;14.45;100.00
50384;BME280;36301;48.310;12.786;2022-08-25T03:27:49;96378.81;;;14.48;100.00
50384;BME280;36301;48.310;12.786;2022-08-25T03:30:17;96374.22;;;14.45;100.00
50384;BME280;36301;48.310;12.786;2022-08-25T03:32:44;96365.47;;;14.41;100.00
50384;BME280;36301;48.310;12.786;2022-08-25T03:35:12;96374.22;;;14.41;100.00
50384;BME280;36301;48.310;12.786;2022-08-25T03:37:39;96373.06;;;14.42;100.00
50384;BME280;36301;48.310;12.786;2022-08-25T03:40:08;96363.53;;;14.34;100.00
50384;BME280;36301;48.310;12.786;2022-08-25T03:42:45;96373.06;;;14.35;100.00
50384;BME280;36301;48.310;12.786;2022-08-25T03:45:13;96368.13;;;14.30;100.00
50384;BME280;36301;48.310;12.786;2022-08-25T03:47:43;96355.56;;;14.20;100.00
50384;BME280;36301;48.310;12.786;2022-08-25T03:50:11;96349.47;;;14.19;100.00
50384;BME280;36301;48.310;12.786;2022-08-25T03:52:38;96366.56;;;14.29;100.00
50384;BME280;36301;48.310;12.786;2022-08-25T03:55:10;96371.91;;;14.29;100.00
50384;BME280;36301;48.310;12.786;2022-08-25T03:57:38;96362.41;;;14.28;100.00
50384;BME280;36301;48.310;12.786;2022-08-25T04:00:07;96368.13;;;14.30;100.00
50384;BME280;36301;48.310;12.786;2022-08-25T04:02:34;96363.16;;;14.32;100.00
50384;BME280;36301;48.310;12.786;2022-08-25T04:05:01;96369.25;;;14.33;100.00
50384;BME280;36301;48.310;12.786;2022-08-25T04:07:28;96366.22;;;14.27;100.00
50384;BME280;36301;48.310;12.786;2022-08-25T04:09:54;96365.84;;;14.25;100.00
50384;BME280;36301;48.310;12.786;2022-08-25T04:12:21;96364.69;;;14.26;100.00
50384;BME280;36301;48.310;12.786;2022-08-25T04:14:48;96360.88;;;14.20;100.00
50384;BME280;36301;48.310;12.786;2022-08-25T04:17:16;96360.88;;;14.23;100.00
50384;BME280;36301;48.310;12.786;2022-08-25T04:19:42;96368.50;;;14.25;100.00
50384;BME280;36301;48.310;12.786;2022-08-25T04:22:09;96357.47;;;14.26;100.00
50384;BME280;36301;48.310;12.786;2022-08-25T04:24:38;96347.19;;;14.25;100.00
50384;BME280;36301;48.310;12.786;2022-08-25T04:27:04;96359.34;;;14.33;100.00
50384;BME280;36301;48.310;12.786;2022-08-25T04:29:32;96363.16;;;14.32;100.00
50384;BME280;36301;48.310;12.786;2022-08-25T04:31:58;96359.75;;;14.35;100.00
50384;BME280;36301;48.310;12.786;2022-08-25T04:34:26;96349.47;;;14.34;100.00
50384;BME280;36301;48.310;12.786;2022-08-25T04:36:58;96355.56;;;14.41;100.00
50384;BME280;36301;48.310;12.786;2022-08-25T04:39:25;96328.56;;;14.25;100.00
50384;BME280;36301;48.310;12.786;2022-08-25T04:41:52;96354.03;;;14.33;100.00
50384;BME280;36301;48.310;12.786;2022-08-25T04:44:18;96346.44;;;14.32;100.00
50384;BME280;36301;48.310;12.786;2022-08-25T04:46:45;96349.47;;;14.34;100.00
50384;BME280;36301;48.310;12.786;2022-08-25T04:49:11;96357.06;;;14.39;100.00
50384;BME280;36301;48.310;12.786;2022-08-25T04:51:39;96361.66;;;14.45;100.00
50384;BME280;36301;48.310;12.786;2022-08-25T04:54:10;96354.78;;;14.44;100.00
50384;BME280;36301;48.310;12.786;2022-08-25T04:56:38;96365.13;;;14.57;100.00
50384;BME280;36301;48.310;12.786;2022-08-25T04:59:10;96370.06;;;14.65;100.00
50384;BME280;36301;48.310;12.786;2022-08-25T05:01:38;96373.09;;;14.74;100.00
50384;BME280;36301;48.310;12.786;2022-08-25T05:04:06;96372.34;;;14.81;100.00
50384;BME280;36301;48.310;12.786;2022-08-25T05:06:40;96369.28;;;14.86;100.00
50384;BME280;36301;48.310;12.786;2022-08-25T05:09:08;96372.69;;;14.97;100.00
50384;BME280;36301;48.310;12.786;2022-08-25T05:11:35;96374.59;;;15.00;100.00
50384;BME280;36301;48.310;12.786;2022-08-25T05:14:03;96375.34;;;15.01;100.00
50384;BME280;36301;48.310;12.786;2022-08-25T05:16:30;96380.69;;;15.01;100.00
50384;BME280;36301;48.310;12.786;2022-08-25T05:18:57;96371.91;;;15.04;100.00
50384;BME280;36301;48.310;12.786;2022-08-25T05:21:26;96378.34;;;15.24;100.00
50384;BME280;36301;48.310;12.786;2022-08-25T05:23:56;96383.63;;;15.42;100.00
50384;BME280;36301;48.310;12.786;2022-08-25T05:26:25;96371.41;;;15.48;100.00
50384;BME280;36301;48.310;12.786;2022-08-25T05:28:53;96375.94;;;15.58;100.00
50384;BME280;36301;48.310;12.786;2022-08-25T05:31:21;96367.94;;;15.66;100.00
50384;BME280;36301;48.310;12.786;2022-08-25T05:33:48;96364.44;;;15.79;100.00
50384;BME280;36301;48.310;12.786;2022-08-25T05:36:15;96380.34;;;16.01;100.00
50384;BME280;36301;48.310;12.786;2022-08-25T05:38:43;96374.56;;;16.09;100.00
50384;BME280;36301;48.310;12.786;2022-08-25T05:41:13;96359.28;;;16.14;100.00
50384;BME280;36301;48.310;12.786;2022-08-25T05:43:42;96370.56;;;16.35;100.00
50384;BME280;36301;48.310;12.786;2022-08-25T05:46:10;96377.00;;;16.45;100.00
50384;BME280;36301;48.310;12.786;2022-08-25T05:48:37;96376.50;;;16.61;100.00
50384;BME280;36301;48.310;12.786;2022-08-25T05:51:06;96381.00;;;17.16;100.00
50384;BME280;36301;48.310;12.786;2022-08-25T05:53:34;96373.94;;;18.25;96.40
50384;BME280;36301;48.310;12.786;2022-08-25T05:56:01;96380.44;;;19.41;90.09
50384;BME280;36301;48.310;12.786;2022-08-25T05:58:28;96374.63;;;20.55;83.88
50384;BME280;36301;48.310;12.786;2022-08-25T06:00:56;96370.16;;;21.55;79.25
50384;BME280;36301;48.310;12.786;2022-08-25T06:03:24;96378.25;;;22.48;76.06
50384;BME280;36301;48.310;12.786;2022-08-25T06:05:50;96370.06;;;22.99;73.46
50384;BME280;36301;48.310;12.786;2022-08-25T06:08:17;96360.72;;;23.35;72.11
50384;BME280;36301;48.310;12.786;2022-08-25T06:10:44;96366.13;;;23.56;70.54
50384;BME280;36301;48.310;12.786;2022-08-25T06:13:11;96378.31;;;23.61;70.97
50384;BME280;36301;48.310;12.786;2022-08-25T06:15:37;96378.09;;;24.30;67.04
50384;BME280;36301;48.310;12.786;2022-08-25T06:18:04;96377.63;;;24.72;66.21
50384;BME280;36301;48.310;12.786;2022-08-25T06:20:31;96369.81;;;24.93;65.72
50384;BME280;36301;48.310;12.786;2022-08-25T06:22:58;96372.41;;;25.24;63.46
50384;BME280;36301;48.310;12.786;2022-08-25T06:25:26;96369.25;;;25.44;64.05
50384;BME280;36301;48.310;12.786;2022-08-25T06:27:53;96371.63;;;25.78;62.06
50384;BME280;36301;48.310;12.786;2022-08-25T06:30:21;96370.59;;;25.76;61.77
50384;BME280;36301;48.310;12.786;2022-08-25T06:32:54;96370.94;;;26.11;60.40
50384;BME280;36301;48.310;12.786;2022-08-25T06:35:22;96365.34;;;26.48;59.36
50384;BME280;36301;48.310;12.786;2022-08-25T06:37:48;96367.06;;;25.84;60.53
50384;BME280;36301;48.310;12.786;2022-08-25T06:40:15;96358.16;;;25.93;61.45
50384;BME280;36301;48.310;12.786;2022-08-25T06:42:46;96361.84;;;25.81;61.21
50384;BME280;36301;48.310;12.786;2022-08-25T06:45:14;96370.59;;;25.76;61.45
50384;BME280;36301;48.310;12.786;2022-08-25T06:47:41;96369.50;;;25.82;62.31
50384;BME280;36301;48.310;12.786;2022-08-25T06:50:11;96361.69;;;25.57;62.93
50384;BME280;36301;48.310;12.786;2022-08-25T06:52:37;96362.69;;;26.29;60.78
50384;BME280;36301;48.310;12.786;2022-08-25T06:55:04;96350.22;;;26.80;59.58
50384;BME280;36301;48.310;12.786;2022-08-25T06:57:32;96365.88;;;26.61;59.95
50384;BME280;36301;48.310;12.786;2022-08-25T07:00:03;96368.56;;;27.33;57.63
50384;BME280;36301;48.310;12.786;2022-08-25T07:02:31;96357.81;;;27.83;57.17
50384;BME280;36301;48.310;12.786;2022-08-25T07:05:01;96358.44;;;27.33;57.94
50384;BME280;36301;48.310;12.786;2022-08-25T07:07:29;96354.22;;;26.36;60.30
50384;BME280;36301;48.310;12.786;2022-08-25T07:10:09;96356.00;;;26.73;59.88
50384;BME280;36301;48.310;12.786;2022-08-25T07:12:36;96363.59;;;27.46;57.64
50384;BME280;36301;48.310;12.786;2022-08-25T07:15:03;96351.81;;;27.93;56.19
50384;BME280;36301;48.310;12.786;2022-08-25T07:17:46;96341.66;;;27.50;57.07
50384;BME280;36301;48.310;12.786;2022-08-25T07:20:14;96361.06;;;28.02;56.07
50384;BME280;36301;48.310;12.786;2022-08-25T07:22:41;96364.25;;;27.41;58.24
50384;BME280;36301;48.310;12.786;2022-08-25T07:25:08;96364.72;;;27.54;57.41
50384;BME280;36301;48.310;12.786;2022-08-25T07:27:37;96361.00;;;27.81;57.90
50384;BME280;36301;48.310;12.786;2022-08-25T07:30:07;96362.47;;;27.97;57.03
50384;BME280;36301;48.310;12.786;2022-08-25T07:32:36;96363.84;;;26.95;58.63
50384;BME280;36301;48.310;12.786;2022-08-25T07:35:07;96357.19;;;26.05;61.39
50384;BME280;36301;48.310;12.786;2022-08-25T07:37:43;96357.13;;;27.05;60.67
50384;BME280;36301;48.310;12.786;2022-08-25T07:40:33;96353.94;;;27.06;59.82
50384;BME280;36301;48.310;12.786;2022-08-25T07:43:03;96357.44;;;27.90;56.90
50384;BME280;36301;48.310;12.786;2022-08-25T07:45:34;96346.09;;;27.08;58.05
50384;BME280;36301;48.310;12.786;2022-08-25T07:48:10;96352.22;;;26.70;59.76
50384;BME280;36301;48.310;12.786;2022-08-25T07:50:42;96345.03;;;26.67;59.27
50384;BME280;36301;48.310;12.786;2022-08-25T07:53:10;96353.91;;;25.41;63.21
50384;BME280;36301;48.310;12.786;2022-08-25T07:55:37;96347.44;;;25.99;61.76
50384;BME280;36301;48.310;12.786;2022-08-25T07:58:05;96348.06;;;24.38;66.87
50384;BME280;36301;48.310;12.786;2022-08-25T08:00:35;96339.00;;;26.06;62.77
50384;BME280;36301;48.310;12.786;2022-08-25T08:03:07;96332.28;;;26.97;59.07
50384;BME280;36301;48.310;12.786;2022-08-25T08:05:49;96337.16;;;26.93;59.14
50384;BME280;36301;48.310;12.786;2022-08-25T08:08:16;96343.13;;;25.83;62.64
50384;BME280;36301;48.310;12.786;2022-08-25T08:10:44;96341.63;;;25.82;63.05
50384;BME280;36301;48.310;12.786;2022-08-25T08:13:31;96337.22;;;26.27;62.29
50384;BME280;36301;48.310;12.786;2022-08-25T08:16:08;96336.94;;;26.58;60.31
50384;BME280;36301;48.310;12.786;2022-08-25T08:18:34;96346.09;;;25.15;65.55
50384;BME280;36301;48.310;12.786;2022-08-25T08:21:01;96340.78;;;24.93;65.55
50384;BME280;36301;48.310;12.786;2022-08-25T08:23:29;96343.66;;;25.17;64.75
50384;BME280;36301;48.310;12.786;2022-08-25T08:25:55;96342.75;;;24.74;66.85
50384;BME280;36301;48.310;12.786;2022-08-25T08:28:22;96341.91;;;24.37;67.98
50384;BME280;36301;48.310;12.786;2022-08-25T08:30:53;96337.50;;;25.07;66.02
50384;BME280;36301;48.310;12.786;2022-08-25T08:33:22;96336.50;;;25.84;63.59
50384;BME280;36301;48.310;12.786;2022-08-25T08:36:05;96334.44;;;26.93;59.69
50384;BME280;36301;48.310;12.786;2022-08-25T08:38:35;96340.25;;;25.86;61.84
50384;BME280;36301;48.310;12.786;2022-08-25T08:41:09;96350.00;;;26.02;61.74
50384;BME280;36301;48.310;12.786;2022-08-25T08:44:25;96349.94;;;26.21;60.14
50384;BME280;36301;48.310;12.786;2022-08-25T08:47:10;96352.94;;;25.80;61.83
50384;BME280;36301;48.310;12.786;2022-08-25T08:52:15;96344.91;;;26.28;61.35
50384;BME280;36301;48.310;12.786;2022-08-25T08:54:49;96337.78;;;26.07;61.22
50384;BME280;36301;48.310;12.786;2022-08-25T08:57:24;96335.50;;;26.72;58.52
50384;BME280;36301;48.310;12.786;2022-08-25T08:59:59;96340.56;;;26.79;58.95
50384;BME280;36301;48.310;12.786;2022-08-25T09:02:32;96336.34;;;27.16;58.22
50384;BME280;36301;48.310;12.786;2022-08-25T09:05:19;96334.88;;;27.30;57.45
50384;BME280;36301;48.310;12.786;2022-08-25T09:07:50;96333.41;;;27.59;57.84
50384;BME280;36301;48.310;12.786;2022-08-25T09:10:41;96335.38;;;27.58;57.18
50384;BME280;36301;48.310;12.786;2022-08-25T09:16:03;96327.13;;;26.99;57.54
50384;BME280;36301;48.310;12.786;2022-08-25T09:19:13;96320.25;;;26.89;59.83
50384;BME280;36301;48.310;12.786;2022-08-25T09:22:25;96337.22;;;27.23;57.06
50384;BME280;36301;48.310;12.786;2022-08-25T09:28:40;96324.53;;;26.81;59.03
50384;BME280;36301;48.310;12.786;2022-08-25T09:31:16;96328.47;;;26.56;59.17
50384;BME280;36301;48.310;12.786;2022-08-25T09:33:44;96323.47;;;26.06;60.92
50384;BME280;36301;48.310;12.786;2022-08-25T09:36:12;96310.31;;;26.47;59.80
50384;BME280;36301;48.310;12.786;2022-08-25T09:38:40;96308.63;;;27.57;57.31
50384;BME280;36301;48.310;12.786;2022-08-25T09:41:07;96307.78;;;26.82;58.78
50384;BME280;36301;48.310;12.786;2022-08-25T09:43:39;96310.88;;;25.85;61.66
50384;BME280;36301;48.310;12.786;2022-08-25T09:46:13;96312.06;;;26.26;61.11
50384;BME280;36301;48.310;12.786;2022-08-25T09:48:47;96298.50;;;26.74;59.09
50384;BME280;36301;48.310;12.786;2022-08-25T09:51:29;96308.75;;;26.22;60.45
50384;BME280;36301;48.310;12.786;2022-08-25T09:56:54;96297.22;;;26.03;61.97
50384;BME280;36301;48.310;12.786;2022-08-25T09:59:25;96297.91;;;25.80;62.10
50384;BME280;36301;48.310;12.786;2022-08-25T10:02:07;96302.13;;;25.20;64.38
50384;BME280;36301;48.310;12.786;2022-08-25T10:04:46;96297.44;;;24.66;65.72
50384;BME280;36301;48.310;12.786;2022-08-25T10:07:38;96296.53;;;24.78;65.53
50384;BME280;36301;48.310;12.786;2022-08-25T10:10:26;96295.41;;;24.29;67.51
50384;BME280;36301;48.310;12.786;2022-08-25T10:12:58;96303.88;;;24.41;67.09
50384;BME280;36301;48.310;12.786;2022-08-25T10:15:30;96298.66;;;24.65;67.78
50384;BME280;36301;48.310;12.786;2022-08-25T10:21:14;96290.50;;;24.46;68.23
50384;BME280;36301;48.310;12.786;2022-08-25T10:23:50;96284.66;;;25.30;66.71
50384;BME280;36301;48.310;12.786;2022-08-25T10:29:20;96289.16;;;24.51;67.08
50384;BME280;36301;48.310;12.786;2022-08-25T10:34:57;96290.06;;;24.57;67.54
50384;BME280;36301;48.310;12.786;2022-08-25T10:40:29;96292.31;;;25.32;63.84
50384;BME280;36301;48.310;12.786;2022-08-25T10:45:56;96287.34;;;25.03;64.32
50384;BME280;36301;48.310;12.786;2022-08-25T10:48:45;96285.88;;;25.20;64.61
50384;BME280;36301;48.310;12.786;2022-08-25T10:51:39;96280.47;;;25.20;63.62
50384;BME280;36301;48.310;12.786;2022-08-25T10:56:42;96273.22;;;25.26;63.44
50384;BME280;36301;48.310;12.786;2022-08-25T11:04:47;96258.72;;;26.14;62.72
50384;BME280;36301;48.310;12.786;2022-08-25T11:07:23;96267.81;;;26.59;61.64
50384;BME280;36301;48.310;12.786;2022-08-25T11:09:53;96251.34;;;27.16;58.75
50384;BME280;36301;48.310;12.786;2022-08-25T11:12:34;96259.97;;;26.37;59.01
50384;BME280;36301;48.310;12.786;2022-08-25T11:15:31;96255.41;;;26.43;59.65
50384;BME280;36301;48.310;12.786;2022-08-25T11:18:11;96256.50;;;26.12;61.07
50384;BME280;36301;48.310;12.786;2022-08-25T11:21:02;96252.78;;;26.73;59.65
50384;BME280;36301;48.310;12.786;2022-08-25T11:23:40;96248.63;;;27.31;59.19
50384;BME280;36301;48.310;12.786;2022-08-25T11:26:12;96242.94;;;27.14;58.62
50384;BME280;36301;48.310;12.786;2022-08-25T11:29:13;96235.91;;;27.07;57.22
50384;BME280;36301;48.310;12.786;2022-08-25T11:31:46;96224.06;;;27.40;58.09
50384;BME280;36301;48.310;12.786;2022-08-25T11:34:20;96234.34;;;26.77;58.15
50384;BME280;36301;48.310;12.786;2022-08-25T11:36:54;96240.56;;;26.92;58.69
50384;BME280;36301;48.310;12.786;2022-08-25T11:39:32;96232.88;;;27.05;58.77
50384;BME280;36301;48.310;12.786;2022-08-25T11:48:14;96246.69;;;26.63;60.37
50384;BME280;36301;48.310;12.786;2022-08-25T11:51:13;96244.22;;;26.65;59.43
50384;BME280;36301;48.310;12.786;2022-08-25T11:56:40;96238.47;;;26.24;60.08
50384;BME280;36301;48.310;12.786;2022-08-25T11:59:07;96244.59;;;26.58;59.56
50384;BME280;36301;48.310;12.786;2022-08-25T12:04:30;96235.13;;;26.92;60.26
50384;BME280;36301;48.310;12.786;2022-08-25T12:09:35;96245.34;;;26.10;61.71
50384;BME280;36301;48.310;12.786;2022-08-25T12:12:28;96233.34;;;26.26;62.26
50384;BME280;36301;48.310;12.786;2022-08-25T12:18:17;96230.34;;;27.16;59.93
50384;BME280;36301;48.310;12.786;2022-08-25T12:23:37;96217.19;;;26.85;58.26
50384;BME280;36301;48.310;12.786;2022-08-25T12:29:06;96235.13;;;27.22;57.63
50384;BME280;36301;48.310;12.786;2022-08-25T12:37:22;96226.97;;;27.07;58.15
50384;BME280;36301;48.310;12.786;2022-08-25T12:42:38;96227.13;;;26.74;59.23
50384;BME280;36301;48.310;12.786;2022-08-25T12:47:50;96210.59;;;26.48;59.14
50384;BME280;36301;48.310;12.786;2022-08-25T12:50:39;96211.50;;;26.98;56.82
50384;BME280;36301;48.310;12.786;2022-08-25T12:56:02;96209.81;;;27.45;58.16
50384;BME280;36301;48.310;12.786;2022-08-25T13:07:09;96215.78;;;26.75;58.63
50384;BME280;36301;48.310;12.786;2022-08-25T13:12:36;96215.41;;;26.68;57.96
50384;BME280;36301;48.310;12.786;2022-08-25T13:15:13;96213.53;;;26.11;59.23
50384;BME280;36301;48.310;12.786;2022-08-25T13:17:40;96210.44;;;25.70;60.75
50384;BME280;36301;48.310;12.786;2022-08-25T13:20:13;96202.50;;;26.14;60.38
50384;BME280;36301;48.310;12.786;2022-08-25T13:22:42;96209.09;;;26.47;60.14
50384;BME280;36301;48.310;12.786;2022-08-25T13:25:21;96206.59;;;26.10;60.61
50384;BME280;36301;48.310;12.786;2022-08-25T13:28:00;96205.06;;;26.42;60.22
50384;BME280;36301;48.310;12.786;2022-08-25T13:30:33;96197.75;;;26.24;59.66
50384;BME280;36301;48.310;12.786;2022-08-25T13:33:18;96191.59;;;26.48;59.18
50384;BME280;36301;48.310;12.786;2022-08-25T13:35:51;96201.41;;;26.21;60.97
50384;BME280;36301;48.310;12.786;2022-08-25T13:38:38;96189.81;;;26.35;60.13
50384;BME280;36301;48.310;12.786;2022-08-25T13:41:06;96187.75;;;26.16;60.17
50384;BME280;36301;48.310;12.786;2022-08-25T13:43:36;96182.88;;;25.96;60.69
50384;BME280;36301;48.310;12.786;2022-08-25T13:46:04;96184.19;;;26.24;60.80
50384;BME280;36301;48.310;12.786;2022-08-25T13:48:37;96176.13;;;25.91;61.15
50384;BME280;36301;48.310;12.786;2022-08-25T13:51:25;96176.31;;;26.11;60.71
50384;BME280;36301;48.310;12.786;2022-08-25T13:54:01;96172.09;;;26.25;60.68
50384;BME280;36301;48.310;12.786;2022-08-25T13:56:31;96174.47;;;26.32;60.02
50384;BME280;36301;48.310;12.786;2022-08-25T13:59:23;96173.06;;;26.90;58.18
50384;BME280;36301;48.310;12.786;2022-08-25T14:01:53;96169.72;;;27.25;58.37
50384;BME280;36301;48.310;12.786;2022-08-25T14:04:29;96169.78;;;27.31;57.47
50384;BME280;36301;48.310;12.786;2022-08-25T14:07:13;96167.22;;;27.57;56.47
50384;BME280;36301;48.310;12.786;2022-08-25T14:09:57;96172.97;;;26.70;56.56
50384;BME280;36301;48.310;12.786;2022-08-25T14:12:40;96165.38;;;26.59;57.27
50384;BME280;36301;48.310;12.786;2022-08-25T14:15:28;96173.25;;;26.57;59.03
50384;BME280;36301;48.310;12.786;2022-08-25T14:18:02;96172.91;;;26.79;58.61
50384;BME280;36301;48.310;12.786;2022-08-25T14:20:31;96163.81;;;26.68;59.40
50384;BME280;36301;48.310;12.786;2022-08-25T14:23:22;96168.78;;;26.84;59.31
50384;BME280;36301;48.310;12.786;2022-08-25T14:25:53;96155.66;;;26.68;58.53
50384;BME280;36301;48.310;12.786;2022-08-25T14:28:23;96165.78;;;27.26;57.96
50384;BME280;36301;48.310;12.786;2022-08-25T14:30:56;96155.25;;;26.45;58.79
50384;BME280;36301;48.310;12.786;2022-08-25T14:33:33;96159.50;;;26.22;59.84
50384;BME280;36301;48.310;12.786;2022-08-25T14:36:00;96149.69;;;26.01;60.25
50384;BME280;36301;48.310;12.786;2022-08-25T14:38:30;96147.69;;;25.86;61.19